sensor_id;sensor_type;location;lat;lon;timestamp;pressure;altitude;pressure_sealevel;temperature;humidity
45467;BME280;31212;49.734;8.490;2022-11-06T00:00:45;101003.59;;;6.04;90.99
45467;BME280;31212;49.734;8.490;2022-11-06T00:03:11;101000.06;;;6.02;91.23
45467;BME280;31212;49.734;8.490;2022-11-06T00:05:40;101007.81;;;6.02;91.50
45467;BME280;31212;49.734;8.490;2022-11-06T00:08:30;101000.81;;;5.98;91.44
45467;BME280;31212;49.734;8.490;2022-11-06T00:10:56;101003.47;;;5.99;91.61
45467;BME280;31212;49.734;8.490;2022-11-06T00:13:23;101002.50;;;5.97;91.43
45467;BME280;31212;49.734;8.490;2022-11-06T00:15:50;101005.97;;;5.98;91.86
45467;BME280;31212;49.734;8.490;2022-11-06T00:18:16;101001.47;;;5.92;91.20
45467;BME280;31212;49.734;8.490;2022-11-06T00:20:44;100995.50;;;5.93;91.39
45467;BME280;31212;49.734;8.490;2022-11-06T00:23:11;100997.00;;;5.86;91.78
45467;BME280;31212;49.734;8.490;2022-11-06T00:25:39;100990.94;;;5.84;91.64
45467;BME280;31212;49.734;8.490;2022-11-06T00:28:06;100988.16;;;5.78;91.31
45467;BME280;31212;49.734;8.490;2022-11-06T00:30:32;100989.00;;;5.79;91.26
45467;BME280;31212;49.734;8.490;2022-11-06T00:32:59;100980.34;;;5.75;91.47
45467;BME280;31212;49.734;8.490;2022-11-06T00:35:25;100978.53;;;5.72;91.54
45467;BME280;31212;49.734;8.490;2022-11-06T00:37:53;100974.06;;;5.67;91.36
45467;BME280;31212;49.734;8.490;2022-11-06T00:40:20;100967.94;;;5.63;91.63
45467;BME280;31212;49.734;8.490;2022-11-06T00:42:46;100965.25;;;5.60;92.10
45467;BME280;31212;49.734;8.490;2022-11-06T00:45:13;100969.44;;;5.56;92.03
45467;BME280;31212;49.734;8.490;2022-11-06T00:47:40;100951.41;;;5.56;92.44
45467;BME280;31212;49.734;8.490;2022-11-06T00:50:07;100953.16;;;5.58;91.58
45467;BME280;31212;49.734;8.490;2022-11-06T00:52:33;100949.69;;;5.57;91.85
45467;BME280;31212;49.734;8.490;2022-11-06T00:55:01;100952.16;;;5.54;92.16
45467;BME280;31212;49.734;8.490;2022-11-06T00:57:28;100946.94;;;5.51;92.03
45467;BME280;31212;49.734;8.490;2022-11-06T00:59:54;100942.56;;;5.48;91.86
45467;BME280;31212;49.734;8.490;2022-11-06T01:02:21;100944.16;;;5.45;91.84
45467;BME280;31212;49.734;8.490;2022-11-06T01:04:47;100940.75;;;5.46;91.65
45467;BME280;31212;49.734;8.490;2022-11-06T01:07:14;100939.81;;;5.44;91.91
45467;BME280;31212;49.734;8.490;2022-11-06T01:09:40;100938.13;;;5.44;91.89
45467;BME280;31212;49.734;8.490;2022-11-06T01:12:08;100937.22;;;5.44;92.30
45467;BME280;31212;49.734;8.490;2022-11-06T01:14:35;100936.38;;;5.43;92.10
45467;BME280;31212;49.734;8.490;2022-11-06T01:17:03;100936.50;;;5.48;92.30
45467;BME280;31212;49.734;8.490;2022-11-06T01:19:30;100935.66;;;5.47;91.85
45467;BME280;31212;49.734;8.490;2022-11-06T01:21:56;100931.28;;;5.45;92.29
45467;BME280;31212;49.734;8.490;2022-11-06T01:24:26;100940.13;;;5.53;92.16
45467;BME280;31212;49.734;8.490;2022-11-06T01:26:53;100931.63;;;5.55;91.92
45467;BME280;31212;49.734;8.490;2022-11-06T01:29:21;100932.44;;;5.54;92.43
45467;BME280;31212;49.734;8.490;2022-11-06T01:31:47;100933.31;;;5.55;91.67
45467;BME280;31212;49.734;8.490;2022-11-06T01:34:15;100927.34;;;5.56;91.85
45467;BME280;31212;49.734;8.490;2022-11-06T01:36:42;100929.72;;;5.50;91.99
45467;BME280;31212;49.734;8.490;2022-11-06T01:39:11;100929.03;;;5.55;91.71
45467;BME280;31212;49.734;8.490;2022-11-06T01:41:41;100920.50;;;5.56;91.09
45467;BME280;31212;49.734;8.490;2022-11-06T01:47:26;100921.31;;;5.55;91.69
45467;BME280;31212;49.734;8.490;2022-11-06T01:49:56;100911.00;;;5.55;91.32
45467;BME280;31212;49.734;8.490;2022-11-06T01:52:24;100912.72;;;5.55;91.75
45467;BME280;31212;49.734;8.490;2022-11-06T01:54:55;100899.06;;;5.58;91.63
45467;BME280;31212;49.734;8.490;2022-11-06T01:57:23;100888.66;;;5.54;91.42
45467;BME280;31212;49.734;8.490;2022-11-06T01:59:50;100886.84;;;5.52;91.29
45467;BME280;31212;49.734;8.490;2022-11-06T02:02:18;100892.91;;;5.52;91.31
45467;BME280;31212;49.734;8.490;2022-11-06T02:04:47;100895.47;;;5.52;91.37
45467;BME280;31212;49.734;8.490;2022-11-06T02:07:16;100891.19;;;5.53;91.13
45467;BME280;31212;49.734;8.490;2022-11-06T02:09:43;100891.06;;;5.48;90.94
45467;BME280;31212;49.734;8.490;2022-11-06T02:12:16;100890.06;;;5.45;91.15
45467;BME280;31212;49.734;8.490;2022-11-06T02:14:53;100886.41;;;5.38;91.12
45467;BME280;31212;49.734;8.490;2022-11-06T02:17:31;100896.03;;;5.44;91.32
45467;BME280;31212;49.734;8.490;2022-11-06T02:20:10;100889.94;;;5.40;91.25
45467;BME280;31212;49.734;8.490;2022-11-06T02:22:54;100896.69;;;5.36;91.31
45467;BME280;31212;49.734;8.490;2022-11-06T02:25:36;100883.81;;;5.36;91.25
45467;BME280;31212;49.734;8.490;2022-11-06T02:28:08;100878.59;;;5.35;91.32
45467;BME280;31212;49.734;8.490;2022-11-06T02:30:42;100882.94;;;5.36;91.47
45467;BME280;31212;49.734;8.490;2022-11-06T02:33:10;100873.28;;;5.30;91.47
45467;BME280;31212;49.734;8.490;2022-11-06T02:35:42;100873.38;;;5.32;91.37
45467;BME280;31212;49.734;8.490;2022-11-06T02:38:14;100867.31;;;5.31;91.40
45467;BME280;31212;49.734;8.490;2022-11-06T02:40:46;100869.91;;;5.31;91.28
45467;BME280;31212;49.734;8.490;2022-11-06T02:43:18;100875.81;;;5.29;91.68
45467;BME280;31212;49.734;8.490;2022-11-06T02:45:48;100871.41;;;5.25;91.46
45467;BME280;31212;49.734;8.490;2022-11-06T02:48:20;100866.13;;;5.20;91.44
45467;BME280;31212;49.734;8.490;2022-11-06T02:50:49;100863.38;;;5.15;91.58
45467;BME280;31212;49.734;8.490;2022-11-06T02:53:19;100872.75;;;5.13;91.95
45467;BME280;31212;49.734;8.490;2022-11-06T02:55:50;100872.72;;;5.12;91.63
45467;BME280;31212;49.734;8.490;2022-11-06T02:58:22;100883.03;;;5.12;92.26
45467;BME280;31212;49.734;8.490;2022-11-06T03:00:55;100877.09;;;5.14;92.07
45467;BME280;31212;49.734;8.490;2022-11-06T03:03:26;100869.22;;;5.10;92.27
45467;BME280;31212;49.734;8.490;2022-11-06T03:05:57;100875.09;;;5.05;92.17
45467;BME280;31212;49.734;8.490;2022-11-06T03:08:29;100883.97;;;5.15;92.31
45467;BME280;31212;49.734;8.490;2022-11-06T03:11:05;100889.97;;;5.14;92.00
45467;BME280;31212;49.734;8.490;2022-11-06T03:13:43;100881.41;;;5.15;92.25
45467;BME280;31212;49.734;8.490;2022-11-06T03:16:22;100883.06;;;5.13;92.25
45467;BME280;31212;49.734;8.490;2022-11-06T03:18:57;100888.13;;;5.10;92.22
45467;BME280;31212;49.734;8.490;2022-11-06T03:21:29;100877.69;;;5.07;92.50
45467;BME280;31212;49.734;8.490;2022-11-06T03:24:02;100868.13;;;5.03;92.19
45467;BME280;31212;49.734;8.490;2022-11-06T03:26:31;100868.19;;;5.04;92.69
45467;BME280;31212;49.734;8.490;2022-11-06T03:29:07;100869.88;;;5.04;92.41
45467;BME280;31212;49.734;8.490;2022-11-06T03:31:38;100862.06;;;5.01;92.40
45467;BME280;31212;49.734;8.490;2022-11-06T03:34:09;100858.25;;;4.89;92.57
45467;BME280;31212;49.734;8.490;2022-11-06T03:36:41;100871.88;;;4.87;92.70
45467;BME280;31212;49.734;8.490;2022-11-06T03:39:10;100872.78;;;4.87;92.93
45467;BME280;31212;49.734;8.490;2022-11-06T03:41:41;100869.22;;;4.84;92.98
45467;BME280;31212;49.734;8.490;2022-11-06T03:44:13;100865.84;;;4.85;92.87
45467;BME280;31212;49.734;8.490;2022-11-06T03:46:45;100863.94;;;4.79;93.25
45467;BME280;31212;49.734;8.490;2022-11-06T03:49:17;100859.69;;;4.81;93.22
45467;BME280;31212;49.734;8.490;2022-11-06T03:51:51;100865.66;;;4.80;92.96
45467;BME280;31212;49.734;8.490;2022-11-06T03:54:22;100856.00;;;4.73;93.25
45467;BME280;31212;49.734;8.490;2022-11-06T03:56:54;100852.66;;;4.76;93.16
45467;BME280;31212;49.734;8.490;2022-11-06T03:59:25;100850.94;;;4.76;93.14
45467;BME280;31212;49.734;8.490;2022-11-06T04:01:54;100847.47;;;4.74;93.20
45467;BME280;31212;49.734;8.490;2022-11-06T04:04:26;100859.38;;;4.72;92.88
45467;BME280;31212;49.734;8.490;2022-11-06T04:06:56;100843.72;;;4.64;92.93
45467;BME280;31212;49.734;8.490;2022-11-06T04:09:27;100844.34;;;4.59;93.05
45467;BME280;31212;49.734;8.490;2022-11-06T04:12:14;100848.69;;;4.60;93.16
45467;BME280;31212;49.734;8.490;2022-11-06T04:15:04;100837.34;;;4.54;93.37
45467;BME280;31212;49.734;8.490;2022-11-06T04:17:31;100834.78;;;4.54;93.22
45467;BME280;31212;49.734;8.490;2022-11-06T04:20:00;100846.06;;;4.58;93.38
45467;BME280;31212;49.734;8.490;2022-11-06T04:22:36;100847.31;;;4.45;93.39
45467;BME280;31212;49.734;8.490;2022-11-06T04:25:19;100840.31;;;4.41;93.58
45467;BME280;31212;49.734;8.490;2022-11-06T04:28:20;100849.03;;;4.45;93.71
45467;BME280;31212;49.734;8.490;2022-11-06T04:30:59;100847.13;;;4.39;93.72
45467;BME280;31212;49.734;8.490;2022-11-06T04:33:33;100844.59;;;4.41;93.70
45467;BME280;31212;49.734;8.490;2022-11-06T04:36:10;100846.16;;;4.37;93.85
45467;BME280;31212;49.734;8.490;2022-11-06T04:38:44;100855.03;;;4.45;93.76
45467;BME280;31212;49.734;8.490;2022-11-06T04:41:19;100859.88;;;4.36;93.85
45467;BME280;31212;49.734;8.490;2022-11-06T04:43:48;100866.53;;;4.31;93.92
45467;BME280;31212;49.734;8.490;2022-11-06T04:46:20;100867.44;;;4.33;93.77
45467;BME280;31212;49.734;8.490;2022-11-06T04:48:49;100867.34;;;4.30;93.83
45467;BME280;31212;49.734;8.490;2022-11-06T04:51:18;100867.34;;;4.30;94.15
45467;BME280;31212;49.734;8.490;2022-11-06T04:53:47;100853.50;;;4.26;94.22
45467;BME280;31212;49.734;8.490;2022-11-06T04:56:20;100853.50;;;4.26;94.16
45467;BME280;31212;49.734;8.490;2022-11-06T04:58:48;100861.22;;;4.26;94.32
45467;BME280;31212;49.734;8.490;2022-11-06T05:01:15;100865.31;;;4.21;94.57
45467;BME280;31212;49.734;8.490;2022-11-06T05:03:42;100868.66;;;4.18;94.37
45467;BME280;31212;49.734;8.490;2022-11-06T05:06:09;100863.38;;;4.15;94.52
45467;BME280;31212;49.734;8.490;2022-11-06T05:08:35;100867.63;;;4.13;94.64
45467;BME280;31212;49.734;8.490;2022-11-06T05:11:02;100865.84;;;4.12;94.48
45467;BME280;31212;49.734;8.490;2022-11-06T05:13:29;100872.31;;;4.01;94.62
45467;BME280;31212;49.734;8.490;2022-11-06T05:15:55;100873.28;;;4.04;94.83
45467;BME280;31212;49.734;8.490;2022-11-06T05:18:23;100879.31;;;4.05;95.10
45467;BME280;31212;49.734;8.490;2022-11-06T05:20:51;100871.81;;;4.11;95.07
45467;BME280;31212;49.734;8.490;2022-11-06T05:23:37;100867.38;;;4.07;94.91
45467;BME280;31212;49.734;8.490;2022-11-06T05:26:03;100859.50;;;4.02;94.83
45467;BME280;31212;49.734;8.490;2022-11-06T05:28:30;100855.44;;;4.08;94.67
45467;BME280;31212;49.734;8.490;2022-11-06T05:30:56;100857.75;;;4.01;94.64
45467;BME280;31212;49.734;8.490;2022-11-06T05:33:23;100858.03;;;4.09;94.68
45467;BME280;31212;49.734;8.490;2022-11-06T05:35:51;100847.63;;;4.06;94.96
45467;BME280;31212;49.734;8.490;2022-11-06T05:38:17;100837.09;;;3.98;94.74
45467;BME280;31212;49.734;8.490;2022-11-06T05:40:44;100833.78;;;4.01;94.61
45467;BME280;31212;49.734;8.490;2022-11-06T05:43:10;100826.06;;;4.01;94.96
45467;BME280;31212;49.734;8.490;2022-11-06T05:45:37;100830.00;;;3.93;94.75
45467;BME280;31212;49.734;8.490;2022-11-06T05:48:04;100829.81;;;3.86;94.39
45467;BME280;31212;49.734;8.490;2022-11-06T05:50:30;100830.50;;;3.82;94.27
45467;BME280;31212;49.734;8.490;2022-11-06T05:53:03;100825.13;;;3.76;94.51
45467;BME280;31212;49.734;8.490;2022-11-06T05:55:30;100820.00;;;3.76;94.56
45467;BME280;31212;49.734;8.490;2022-11-06T05:57:56;100805.53;;;3.78;94.52
45467;BME280;31212;49.734;8.490;2022-11-06T06:00:23;100799.66;;;3.81;94.73
45467;BME280;31212;49.734;8.490;2022-11-06T06:02:50;100795.38;;;3.81;94.77
45467;BME280;31212;49.734;8.490;2022-11-06T06:05:16;100789.19;;;3.76;94.68
45467;BME280;31212;49.734;8.490;2022-11-06T06:07:43;100789.88;;;3.72;94.69
45467;BME280;31212;49.734;8.490;2022-11-06T06:10:11;100783.69;;;3.67;94.71
45467;BME280;31212;49.734;8.490;2022-11-06T06:12:37;100780.97;;;3.62;94.88
45467;BME280;31212;49.734;8.490;2022-11-06T06:15:05;100796.53;;;3.67;94.62
45467;BME280;31212;49.734;8.490;2022-11-06T06:17:31;100798.94;;;3.62;94.96
45467;BME280;31212;49.734;8.490;2022-11-06T06:19:58;100796.19;;;3.58;94.85
45467;BME280;31212;49.734;8.490;2022-11-06T06:22:24;100800.56;;;3.60;95.16
45467;BME280;31212;49.734;8.490;2022-11-06T06:24:51;100787.81;;;3.62;95.45
45467;BME280;31212;49.734;8.490;2022-11-06T06:27:18;100783.78;;;3.68;95.31
45467;BME280;31212;49.734;8.490;2022-11-06T06:29:45;100784.94;;;3.77;95.74
45467;BME280;31212;49.734;8.490;2022-11-06T06:32:11;100775.44;;;3.74;95.77
45467;BME280;31212;49.734;8.490;2022-11-06T06:34:38;100771.91;;;3.72;95.60
45467;BME280;31212;49.734;8.490;2022-11-06T06:37:04;100768.63;;;3.76;95.66
45467;BME280;31212;49.734;8.490;2022-11-06T06:39:31;100761.28;;;3.85;95.58
45467;BME280;31212;49.734;8.490;2022-11-06T06:41:57;100750.91;;;3.82;95.92
45467;BME280;31212;49.734;8.490;2022-11-06T06:44:25;100745.06;;;3.86;95.81
45467;BME280;31212;49.734;8.490;2022-11-06T06:46:52;100742.53;;;3.88;95.66
45467;BME280;31212;49.734;8.490;2022-11-06T06:49:19;100738.38;;;3.92;96.14
45467;BME280;31212;49.734;8.490;2022-11-06T06:51:46;100743.63;;;3.95;95.93
45467;BME280;31212;49.734;8.490;2022-11-06T06:54:13;100732.72;;;4.02;95.82
45467;BME280;31212;49.734;8.490;2022-11-06T06:56:40;100732.91;;;4.07;95.53
45467;BME280;31212;49.734;8.490;2022-11-06T06:59:06;100726.28;;;4.13;95.66
45467;BME280;31212;49.734;8.490;2022-11-06T07:01:34;100719.72;;;4.21;95.64
45467;BME280;31212;49.734;8.490;2022-11-06T07:04:01;100723.41;;;4.30;95.56
45467;BME280;31212;49.734;8.490;2022-11-06T07:06:27;100716.78;;;4.36;95.38
45467;BME280;31212;49.734;8.490;2022-11-06T07:08:54;100718.72;;;4.44;95.24
45467;BME280;31212;49.734;8.490;2022-11-06T07:11:21;100716.09;;;4.42;95.07
45467;BME280;31212;49.734;8.490;2022-11-06T07:13:47;100721.25;;;4.42;94.81
45467;BME280;31212;49.734;8.490;2022-11-06T07:16:14;100731.78;;;4.50;94.65
45467;BME280;31212;49.734;8.490;2022-11-06T07:18:42;100731.97;;;4.56;94.58
45467;BME280;31212;49.734;8.490;2022-11-06T07:21:10;100726.13;;;4.60;94.54
45467;BME280;31212;49.734;8.490;2022-11-06T07:23:37;100722.16;;;4.70;94.25
45467;BME280;31212;49.734;8.490;2022-11-06T07:26:04;100716.16;;;4.71;94.10
45467;BME280;31212;49.734;8.490;2022-11-06T07:28:32;100719.13;;;4.82;93.90
45467;BME280;31212;49.734;8.490;2022-11-06T07:31:00;100707.25;;;4.87;93.83
45467;BME280;31212;49.734;8.490;2022-11-06T07:33:27;100708.44;;;4.97;93.57
45467;BME280;31212;49.734;8.490;2022-11-06T07:36:00;100705.13;;;5.01;93.36
45467;BME280;31212;49.734;8.490;2022-11-06T07:38:26;100700.88;;;5.03;93.13
45467;BME280;31212;49.734;8.490;2022-11-06T07:40:53;100695.94;;;5.09;92.95
45467;BME280;31212;49.734;8.490;2022-11-06T07:43:19;100696.06;;;5.14;93.30
45467;BME280;31212;49.734;8.490;2022-11-06T07:45:48;100699.91;;;5.28;92.89
45467;BME280;31212;49.734;8.490;2022-11-06T07:48:15;100695.06;;;5.39;92.64
45467;BME280;31212;49.734;8.490;2022-11-06T07:50:42;100696.88;;;5.42;92.35
45467;BME280;31212;49.734;8.490;2022-11-06T07:53:10;100703.97;;;5.50;92.15
45467;BME280;31212;49.734;8.490;2022-11-06T07:55:36;100701.66;;;5.60;92.05
45467;BME280;31212;49.734;8.490;2022-11-06T07:58:03;100718.22;;;6.32;92.71
45467;BME280;31212;49.734;8.490;2022-11-06T08:00:29;100735.25;;;7.78;92.10
45467;BME280;31212;49.734;8.490;2022-11-06T08:02:56;100702.03;;;9.03;88.09
45467;BME280;31212;49.734;8.490;2022-11-06T08:05:22;100599.50;;;10.05;83.27
45467;BME280;31212;49.734;8.490;2022-11-06T08:07:55;100467.59;;;10.90;77.94
45467;BME280;31212;49.734;8.490;2022-11-06T08:10:23;100352.34;;;11.89;73.51
45467;BME280;31212;49.734;8.490;2022-11-06T08:12:49;100202.97;;;12.32;68.95
45467;BME280;31212;49.734;8.490;2022-11-06T08:15:16;100102.94;;;12.57;65.42
45467;BME280;31212;49.734;8.490;2022-11-06T08:17:42;100075.69;;;12.89;63.67
45467;BME280;31212;49.734;8.490;2022-11-06T08:20:09;100092.69;;;12.39;63.25
45467;BME280;31212;49.734;8.490;2022-11-06T08:22:36;100093.06;;;12.89;62.39
45467;BME280;31212;49.734;8.490;2022-11-06T08:25:03;100066.81;;;13.70;60.49
45467;BME280;31212;49.734;8.490;2022-11-06T08:27:32;100012.13;;;13.65;59.31
45467;BME280;31212;49.734;8.490;2022-11-06T08:29:59;100027.75;;;14.18;58.44
45467;BME280;31212;49.734;8.490;2022-11-06T08:32:26;99988.88;;;14.50;57.45
45467;BME280;31212;49.734;8.490;2022-11-06T08:34:53;99965.88;;;14.23;57.04
45467;BME280;31212;49.734;8.490;2022-11-06T08:37:19;99948.66;;;14.57;55.92
45467;BME280;31212;49.734;8.490;2022-11-06T08:39:46;99891.00;;;14.68;54.85
45467;BME280;31212;49.734;8.490;2022-11-06T08:42:13;99921.84;;;14.49;55.17
45467;BME280;31212;49.734;8.490;2022-11-06T08:44:41;99872.53;;;14.35;54.67
45467;BME280;31212;49.734;8.490;2022-11-06T08:47:08;99904.78;;;14.74;54.00
45467;BME280;31212;49.734;8.490;2022-11-06T08:49:34;99873.06;;;14.91;53.70
45467;BME280;31212;49.734;8.490;2022-11-06T08:52:02;99888.69;;;15.30;53.08
45467;BME280;31212;49.734;8.490;2022-11-06T08:54:28;99909.81;;;15.21;54.00
45467;BME280;31212;49.734;8.490;2022-11-06T08:56:56;99857.81;;;15.78;52.15
45467;BME280;31212;49.734;8.490;2022-11-06T08:59:22;99844.66;;;15.46;52.41
45467;BME280;31212;49.734;8.490;2022-11-06T09:01:50;99807.94;;;14.82;52.53
45467;BME280;31212;49.734;8.490;2022-11-06T09:04:16;99843.25;;;14.20;53.65
45467;BME280;31212;49.734;8.490;2022-11-06T09:06:43;99938.13;;;13.13;56.31
45467;BME280;31212;49.734;8.490;2022-11-06T09:09:09;100019.38;;;13.46;57.26
45467;BME280;31212;49.734;8.490;2022-11-06T09:11:36;99997.78;;;14.39;55.95
45467;BME280;31212;49.734;8.490;2022-11-06T09:14:02;99958.59;;;13.41;56.38
45467;BME280;31212;49.734;8.490;2022-11-06T09:16:29;100026.59;;;12.55;58.83
45467;BME280;31212;49.734;8.490;2022-11-06T09:18:57;100105.47;;;11.53;61.64
45467;BME280;31212;49.734;8.490;2022-11-06T09:21:24;100183.66;;;10.94;63.35
45467;BME280;31212;49.734;8.490;2022-11-06T09:23:51;100261.56;;;10.73;65.37
45467;BME280;31212;49.734;8.490;2022-11-06T09:26:17;100302.22;;;10.41;66.25
45467;BME280;31212;49.734;8.490;2022-11-06T09:28:45;100293.38;;;9.85;68.07
45467;BME280;31212;49.734;8.490;2022-11-06T09:31:11;100325.38;;;9.93;68.33
45467;BME280;31212;49.734;8.490;2022-11-06T09:33:38;100328.78;;;9.86;69.11
45467;BME280;31212;49.734;8.490;2022-11-06T09:36:07;100331.28;;;9.66;69.24
45467;BME280;31212;49.734;8.490;2022-11-06T09:38:33;100324.31;;;9.53;69.63
45467;BME280;31212;49.734;8.490;2022-11-06T09:41:01;100361.53;;;9.67;70.71
45467;BME280;31212;49.734;8.490;2022-11-06T09:43:36;100365.13;;;9.89;71.03
45467;BME280;31212;49.734;8.490;2022-11-06T09:46:20;100344.47;;;10.11;70.72
45467;BME280;31212;49.734;8.490;2022-11-06T09:48:51;100332.41;;;10.25;70.22
45467;BME280;31212;49.734;8.490;2022-11-06T09:51:35;100314.34;;;10.52;69.71
45467;BME280;31212;49.734;8.490;2022-11-06T09:54:08;100288.38;;;10.47;69.27
45467;BME280;31212;49.734;8.490;2022-11-06T09:56:40;100284.94;;;10.59;69.45
45467;BME280;31212;49.734;8.490;2022-11-06T09:59:10;100262.44;;;10.97;69.06
45467;BME280;31212;49.734;8.490;2022-11-06T10:01:42;100173.00;;;11.64;66.28
45467;BME280;31212;49.734;8.490;2022-11-06T10:04:19;100097.41;;;11.97;64.52
45467;BME280;31212;49.734;8.490;2022-11-06T10:06:51;100072.31;;;11.88;63.59
45467;BME280;31212;49.734;8.490;2022-11-06T10:09:18;100078.31;;;11.93;63.79
45467;BME280;31212;49.734;8.490;2022-11-06T10:11:53;100032.03;;;12.32;62.72
45467;BME280;31212;49.734;8.490;2022-11-06T10:14:31;99981.94;;;12.85;60.95
45467;BME280;31212;49.734;8.490;2022-11-06T10:17:11;99949.34;;;13.18;60.42
45467;BME280;31212;49.734;8.490;2022-11-06T10:19:48;99937.56;;;12.92;60.56
45467;BME280;31212;49.734;8.490;2022-11-06T10:22:19;99915.31;;;13.27;59.87
45467;BME280;31212;49.734;8.490;2022-11-06T10:24:53;99893.91;;;13.63;58.94
45467;BME280;31212;49.734;8.490;2022-11-06T10:27:27;99883.25;;;13.75;59.07
45467;BME280;31212;49.734;8.490;2022-11-06T10:30:03;99824.63;;;13.93;57.39
45467;BME280;31212;49.734;8.490;2022-11-06T10:32:48;99845.22;;;14.48;57.31
45467;BME280;31212;49.734;8.490;2022-11-06T10:35:22;99792.41;;;14.76;56.04
45467;BME280;31212;49.734;8.490;2022-11-06T10:37:54;99718.41;;;15.08;54.47
45467;BME280;31212;49.734;8.490;2022-11-06T10:40:26;99728.22;;;15.31;54.23
45467;BME280;31212;49.734;8.490;2022-11-06T10:42:59;99741.75;;;15.47;53.86
45467;BME280;31212;49.734;8.490;2022-11-06T10:45:31;99683.53;;;15.41;53.17
45467;BME280;31212;49.734;8.490;2022-11-06T10:48:05;99683.31;;;15.48;52.86
45467;BME280;31212;49.734;8.490;2022-11-06T10:50:41;99663.09;;;15.24;52.70
45467;BME280;31212;49.734;8.490;2022-11-06T10:53:19;99706.22;;;15.09;53.83
45467;BME280;31212;49.734;8.490;2022-11-06T10:56:09;99685.59;;;14.63;53.86
45467;BME280;31212;49.734;8.490;2022-11-06T10:58:36;99711.47;;;14.73;54.27
45467;BME280;31212;49.734;8.490;2022-11-06T11:01:04;99740.31;;;14.68;54.89
45467;BME280;31212;49.734;8.490;2022-11-06T11:03:36;99764.47;;;14.40;55.83
45467;BME280;31212;49.734;8.490;2022-11-06T11:06:05;99780.81;;;14.49;55.73
45467;BME280;31212;49.734;8.490;2022-11-06T11:08:36;99768.09;;;14.35;56.05
45467;BME280;31212;49.734;8.490;2022-11-06T11:11:06;99766.84;;;14.12;56.32
45467;BME280;31212;49.734;8.490;2022-11-06T11:13:41;99845.81;;;14.22;57.79
45467;BME280;31212;49.734;8.490;2022-11-06T11:16:12;99858.75;;;14.28;57.73
45467;BME280;31212;49.734;8.490;2022-11-06T11:18:39;99823.59;;;14.43;56.79
45467;BME280;31212;49.734;8.490;2022-11-06T11:21:13;99807.03;;;14.44;56.99
45467;BME280;31212;49.734;8.490;2022-11-06T11:23:42;99730.81;;;14.66;55.88
45467;BME280;31212;49.734;8.490;2022-11-06T11:26:21;99795.94;;;14.73;56.50
45467;BME280;31212;49.734;8.490;2022-11-06T11:28:50;99739.22;;;14.78;55.80
45467;BME280;31212;49.734;8.490;2022-11-06T11:31:18;99673.38;;;14.62;55.00
45467;BME280;31212;49.734;8.490;2022-11-06T11:33:50;99734.16;;;14.71;55.68
45467;BME280;31212;49.734;8.490;2022-11-06T11:36:18;99759.31;;;14.75;56.37
45467;BME280;31212;49.734;8.490;2022-11-06T11:38:46;99752.97;;;14.85;56.16
45467;BME280;31212;49.734;8.490;2022-11-06T11:41:21;99735.03;;;15.06;55.30
45467;BME280;31212;49.734;8.490;2022-11-06T11:43:55;99757.63;;;15.41;55.93
45467;BME280;31212;49.734;8.490;2022-11-06T11:46:24;99717.84;;;15.60;55.19
45467;BME280;31212;49.734;8.490;2022-11-06T11:48:53;99635.53;;;15.12;54.66
45467;BME280;31212;49.734;8.490;2022-11-06T11:51:26;99615.91;;;14.64;54.73
45467;BME280;31212;49.734;8.490;2022-11-06T11:53:57;99633.84;;;14.42;55.14
45467;BME280;31212;49.734;8.490;2022-11-06T11:56:24;99663.03;;;14.23;55.97
45467;BME280;31212;49.734;8.490;2022-11-06T11:58:54;99687.19;;;13.94;56.92
45467;BME280;31212;49.734;8.490;2022-11-06T12:01:33;99719.56;;;13.85;57.57
45467;BME280;31212;49.734;8.490;2022-11-06T12:04:07;99817.97;;;14.21;59.13
45467;BME280;31212;49.734;8.490;2022-11-06T12:06:35;99765.53;;;14.32;57.88
45467;BME280;31212;49.734;8.490;2022-11-06T12:09:03;99757.44;;;14.80;57.47
45467;BME280;31212;49.734;8.490;2022-11-06T12:11:30;99652.66;;;14.91;55.63
45467;BME280;31212;49.734;8.490;2022-11-06T12:17:02;99631.72;;;15.24;55.25
45467;BME280;31212;49.734;8.490;2022-11-06T12:19:34;99567.84;;;15.89;53.91
45467;BME280;31212;49.734;8.490;2022-11-06T12:22:05;99533.50;;;16.51;52.46
45467;BME280;31212;49.734;8.490;2022-11-06T12:24:40;99455.31;;;16.14;51.52
45467;BME280;31212;49.734;8.490;2022-11-06T12:27:13;99364.50;;;15.91;50.62
45467;BME280;31212;49.734;8.490;2022-11-06T12:29:43;99363.44;;;15.18;51.19
45467;BME280;31212;49.734;8.490;2022-11-06T12:32:20;99415.25;;;14.77;52.32
45467;BME280;31212;49.734;8.490;2022-11-06T12:34:51;99488.16;;;14.53;53.85
45467;BME280;31212;49.734;8.490;2022-11-06T12:37:27;99444.72;;;14.19;53.53
45467;BME280;31212;49.734;8.490;2022-11-06T12:40:13;99505.59;;;13.87;54.82
45467;BME280;31212;49.734;8.490;2022-11-06T12:42:52;99503.13;;;13.44;55.10
45467;BME280;31212;49.734;8.490;2022-11-06T12:45:25;99555.63;;;13.26;56.25
45467;BME280;31212;49.734;8.490;2022-11-06T12:47:54;99595.66;;;13.23;57.16
45467;BME280;31212;49.734;8.490;2022-11-06T12:50:29;99542.72;;;13.21;56.53
45467;BME280;31212;49.734;8.490;2022-11-06T12:53:11;99534.19;;;13.13;56.60
45467;BME280;31212;49.734;8.490;2022-11-06T12:55:42;99556.78;;;13.12;56.87
45467;BME280;31212;49.734;8.490;2022-11-06T12:58:35;99568.34;;;12.99;56.93
45467;BME280;31212;49.734;8.490;2022-11-06T13:01:09;99571.88;;;12.96;57.25
45467;BME280;31212;49.734;8.490;2022-11-06T13:09:26;99635.75;;;12.71;59.34
45467;BME280;31212;49.734;8.490;2022-11-06T13:12:02;99676.53;;;12.72;59.99
45467;BME280;31212;49.734;8.490;2022-11-06T13:14:35;99677.25;;;12.80;59.40
45467;BME280;31212;49.734;8.490;2022-11-06T13:17:09;99614.97;;;12.68;58.94
45467;BME280;31212;49.734;8.490;2022-11-06T13:19:41;99643.66;;;12.66;59.28
45467;BME280;31212;49.734;8.490;2022-11-06T13:22:21;99660.19;;;12.64;59.61
45467;BME280;31212;49.734;8.490;2022-11-06T13:24:53;99643.84;;;12.55;59.37
45467;BME280;31212;49.734;8.490;2022-11-06T13:27:32;99664.69;;;12.55;60.03